createdAt,value
2023-03-10T00:01:25.685Z,66.26
2023-03-10T00:03:55.243Z,66.21
2023-03-10T00:06:27.087Z,66.29
2023-03-10T00:08:56.174Z,66.36
2023-03-10T00:11:24.836Z,66.50
2023-03-10T00:13:53.167Z,66.38
2023-03-10T00:16:24.053Z,66.68
2023-03-10T00:18:52.701Z,66.74
2023-03-10T00:21:23.376Z,66.80
2023-03-10T00:23:54.012Z,66.36
2023-03-10T00:26:23.325Z,66.73
2023-03-10T00:28:51.926Z,66.50
2023-03-10T00:31:22.612Z,66.43
2023-03-10T00:33:52.365Z,66.61
2023-03-10T00:36:23.172Z,66.14
2023-03-10T00:38:54.334Z,66.18
2023-03-10T00:41:25.953Z,66.29
2023-03-10T00:43:54.501Z,66.14
2023-03-10T00:46:23.042Z,66.35
2023-03-10T00:48:51.368Z,65.84
2023-03-10T00:51:20.691Z,66.13
2023-03-10T00:53:49.628Z,66.00
2023-03-10T00:56:21.300Z,66.09
2023-03-10T00:58:52.824Z,65.86
2023-03-10T01:01:24.933Z,65.58
2023-03-10T01:03:54.421Z,65.68
2023-03-10T01:06:23.606Z,65.99
2023-03-10T01:08:52.182Z,65.70
2023-03-10T01:11:24.361Z,65.29
2023-03-10T01:13:53.367Z,65.16
2023-03-10T01:16:22.056Z,65.38
2023-03-10T01:18:50.386Z,64.95
2023-03-10T01:21:20.404Z,64.83
2023-03-10T01:23:48.891Z,65.15
2023-03-10T01:26:18.543Z,65.02
2023-03-10T01:28:49.189Z,64.82
2023-03-10T01:31:18.201Z,64.77
2023-03-10T01:33:47.259Z,64.57
2023-03-10T01:36:18.080Z,64.92
2023-03-10T01:38:46.818Z,64.71
2023-03-10T01:41:15.617Z,64.86
2023-03-10T01:43:45.973Z,63.83
2023-03-10T01:46:40.958Z,64.23
2023-03-10T01:49:24.108Z,64.41
2023-03-10T01:51:57.888Z,64.65
2023-03-10T01:54:27.735Z,65.14
2023-03-10T01:56:57.847Z,65.08
2023-03-10T01:59:28.990Z,65.10
2023-03-10T02:02:00.137Z,65.06
2023-03-10T02:04:35.169Z,64.79
2023-03-10T02:07:06.382Z,65.31
2023-03-10T02:09:38.913Z,65.42
2023-03-10T02:12:08.993Z,65.67
2023-03-10T02:14:38.282Z,65.53
2023-03-10T02:17:13.905Z,65.20
2023-03-10T02:20:05.325Z,64.97
2023-03-10T02:22:34.400Z,65.35
2023-03-10T02:25:09.038Z,65.02
2023-03-10T02:27:41.219Z,65.27
2023-03-10T02:30:12.885Z,65.35
2023-03-10T02:32:44.572Z,65.27
2023-03-10T02:35:13.592Z,65.35
2023-03-10T02:37:42.404Z,65.40
2023-03-10T02:40:34.121Z,65.71
2023-03-10T02:43:06.988Z,65.44
2023-03-10T02:45:39.143Z,65.76
2023-03-10T02:48:09.367Z,65.97
2023-03-10T02:50:40.074Z,65.93
2023-03-10T02:53:13.324Z,65.85
2023-03-10T02:55:42.046Z,66.20
2023-03-10T02:58:11.956Z,65.56
2023-03-10T03:00:41.188Z,65.65
2023-03-10T03:03:11.447Z,65.52
2023-03-10T03:05:40.340Z,65.41
2023-03-10T03:08:09.080Z,65.72
2023-03-10T03:10:38.458Z,65.91
2023-03-10T03:13:07.595Z,66.01
2023-03-10T03:15:37.952Z,66.43
2023-03-10T03:18:07.145Z,66.08
2023-03-10T03:20:37.649Z,66.75
2023-03-10T03:23:06.165Z,66.24
2023-03-10T03:25:37.398Z,66.66
2023-03-10T03:28:06.707Z,66.70
2023-03-10T03:30:36.615Z,67.12
2023-03-10T03:33:06.653Z,66.87
2023-03-10T03:35:37.792Z,66.96
2023-03-10T03:38:06.935Z,67.28
2023-03-10T03:40:36.814Z,67.05
2023-03-10T03:43:05.996Z,67.27
2023-03-10T03:45:34.973Z,67.28
2023-03-10T03:48:05.190Z,67.44
2023-03-10T03:50:33.557Z,67.81
2023-03-10T03:53:01.874Z,67.60
2023-03-10T03:55:30.270Z,67.78
2023-03-10T03:57:58.715Z,67.76
2023-03-10T04:00:27.480Z,67.80
2023-03-10T04:02:55.730Z,67.85
2023-03-10T04:05:25.752Z,68.20
2023-03-10T04:07:54.128Z,68.85
2023-03-10T04:10:27.168Z,68.16
2023-03-10T04:12:55.619Z,68.21
2023-03-10T04:15:24.032Z,68.33
2023-03-10T04:17:52.558Z,67.88
2023-03-10T04:20:21.051Z,68.23
2023-03-10T04:22:50.762Z,68.48
2023-03-10T04:25:19.328Z,68.65
2023-03-10T04:27:49.301Z,68.86
2023-03-10T04:30:17.591Z,69.05
2023-03-10T04:32:48.741Z,69.08
2023-03-10T04:35:17.450Z,68.87
2023-03-10T04:37:45.937Z,68.86
2023-03-10T04:40:16.690Z,69.25
2023-03-10T04:42:45.006Z,69.19
2023-03-10T04:45:14.338Z,68.75
2023-03-10T04:47:42.743Z,69.00
2023-03-10T04:50:12.807Z,68.73
2023-03-10T04:52:41.199Z,69.47
2023-03-10T04:55:10.761Z,69.68
2023-03-10T04:57:41.073Z,69.40
2023-03-10T05:00:13.072Z,69.80
2023-03-10T05:02:42.298Z,69.71
2023-03-10T05:05:11.876Z,69.16
2023-03-10T05:07:40.249Z,68.28
2023-03-10T05:10:09.884Z,68.85
2023-03-10T05:12:42.415Z,68.77
2023-03-10T05:15:11.586Z,69.11
2023-03-10T05:17:40.044Z,68.33
2023-03-10T05:20:09.733Z,68.97
2023-03-10T05:22:38.736Z,68.64
2023-03-10T05:25:08.474Z,68.51
2023-03-10T05:27:38.348Z,69.14
2023-03-10T05:30:10.225Z,69.43
2023-03-10T05:32:38.694Z,69.85
2023-03-10T05:35:07.988Z,69.86
2023-03-10T05:37:39.601Z,69.57
2023-03-10T05:40:09.435Z,69.71
2023-03-10T05:42:37.831Z,69.64
2023-03-10T05:45:09.229Z,69.31
2023-03-10T05:47:37.538Z,69.35
2023-03-10T05:50:06.759Z,68.74
2023-03-10T05:52:38.643Z,69.17
2023-03-10T05:55:08.839Z,69.19
2023-03-10T05:57:37.093Z,68.75
2023-03-10T06:00:10.513Z,69.12
2023-03-10T06:02:39.698Z,69.00
2023-03-10T06:05:11.465Z,68.91
2023-03-10T06:07:40.673Z,69.09
2023-03-10T06:10:10.771Z,69.27
2023-03-10T06:12:39.303Z,69.78
2023-03-10T06:15:10.577Z,69.41
2023-03-10T06:17:38.889Z,69.21
2023-03-10T06:20:07.582Z,68.93
2023-03-10T06:22:35.828Z,68.17
2023-03-10T06:25:05.394Z,68.50
2023-03-10T06:27:34.161Z,68.71
2023-03-10T06:30:02.708Z,68.16
2023-03-10T06:32:32.513Z,68.35
2023-03-10T06:35:00.913Z,68.06
2023-03-10T06:37:29.400Z,68.45
2023-03-10T06:39:58.076Z,67.66
2023-03-10T06:42:26.354Z,67.75
2023-03-10T06:44:56.517Z,67.88
2023-03-10T06:47:25.022Z,67.40
2023-03-10T06:49:55.350Z,67.20
2023-03-10T06:52:24.052Z,64.99
2023-03-10T06:54:52.432Z,65.80
2023-03-10T06:57:21.125Z,65.95
2023-03-10T06:59:49.567Z,64.25
2023-03-10T07:02:20.160Z,65.03
2023-03-10T07:04:49.054Z,65.93
2023-03-10T07:07:19.004Z,66.47
2023-03-10T07:09:47.493Z,66.58
2023-03-10T07:12:15.814Z,66.95
2023-03-10T07:14:44.228Z,66.14
2023-03-10T07:17:12.571Z,66.26
2023-03-10T07:19:40.976Z,66.43
2023-03-10T07:22:11.304Z,65.74
2023-03-10T07:24:41.694Z,65.83
2023-03-10T07:27:09.988Z,65.45
2023-03-10T07:29:38.350Z,65.38
2023-03-10T07:32:07.555Z,65.46
2023-03-10T07:34:35.847Z,66.12
2023-03-10T07:37:04.220Z,65.94
2023-03-10T07:39:32.467Z,66.11
2023-03-10T07:42:02.217Z,65.59
2023-03-10T07:44:30.648Z,65.31
2023-03-10T07:46:58.974Z,64.55
2023-03-10T07:49:27.362Z,65.01
2023-03-10T07:51:55.638Z,64.69
2023-03-10T07:54:23.945Z,65.22
2023-03-10T07:56:52.617Z,65.16
2023-03-10T07:59:22.896Z,65.00
2023-03-10T08:01:51.240Z,64.68
2023-03-10T08:04:19.648Z,64.85
2023-03-10T08:06:48.096Z,64.87
2023-03-10T08:09:16.502Z,64.42
2023-03-10T08:11:44.749Z,64.06
2023-03-10T08:14:13.485Z,64.36
2023-03-10T08:16:43.247Z,64.43
2023-03-10T08:19:11.555Z,64.36
2023-03-10T08:21:39.808Z,63.79
2023-03-10T08:24:08.235Z,63.06
2023-03-10T08:26:36.553Z,63.20
2023-03-10T08:29:04.934Z,63.89
2023-03-10T08:31:33.289Z,64.32
2023-03-10T08:34:03.219Z,64.59
2023-03-10T08:36:32.310Z,63.67
2023-03-10T08:39:02.421Z,64.10
2023-03-10T08:41:32.772Z,64.83
2023-03-10T08:44:01.848Z,64.37
2023-03-10T08:46:31.915Z,64.50
2023-03-10T08:49:00.720Z,64.41
2023-03-10T08:51:30.576Z,64.70
2023-03-10T08:53:58.997Z,64.71
2023-03-10T08:56:27.669Z,64.61
2023-03-10T08:59:00.742Z,64.54
2023-03-10T09:01:30.961Z,64.51
2023-03-10T09:03:59.840Z,64.52
2023-03-10T09:06:31.387Z,64.48
2023-03-10T09:09:00.032Z,63.39
2023-03-10T09:11:30.362Z,63.32
2023-03-10T09:13:59.130Z,63.98
2023-03-10T09:16:28.861Z,64.40
2023-03-10T09:18:57.510Z,64.04
2023-03-10T09:21:26.066Z,63.51
2023-03-10T09:23:56.106Z,64.27
2023-03-10T09:26:24.401Z,64.55
2023-03-10T09:28:55.847Z,62.91
2023-03-10T09:31:29.748Z,62.88
2023-03-10T09:33:58.095Z,62.45
2023-03-10T09:36:27.517Z,62.62
2023-03-10T09:38:58.785Z,62.74
2023-03-10T09:41:42.570Z,63.42
2023-03-10T09:44:24.878Z,63.31
2023-03-10T09:47:06.310Z,63.67
2023-03-10T09:49:38.859Z,63.76
2023-03-10T09:52:22.443Z,63.39
2023-03-10T09:55:00.111Z,62.83
2023-03-10T09:57:31.743Z,62.72
2023-03-10T10:00:05.628Z,62.88
2023-03-10T10:02:37.822Z,62.74
2023-03-10T10:05:17.385Z,62.36
2023-03-10T10:07:50.570Z,62.82
2023-03-10T10:10:25.834Z,63.09
2023-03-10T10:12:55.959Z,63.47
2023-03-10T10:15:26.854Z,63.27
2023-03-10T10:18:18.253Z,63.18
2023-03-10T10:20:51.517Z,64.00
2023-03-10T10:23:28.850Z,60.98
2023-03-10T10:26:02.799Z,61.56
2023-03-10T10:28:41.947Z,63.06
2023-03-10T10:31:17.222Z,63.50
2023-03-10T10:34:00.092Z,62.64
2023-03-10T10:36:31.362Z,62.68
2023-03-10T10:39:00.376Z,63.08
2023-03-10T10:41:32.345Z,63.72
2023-03-10T10:44:08.281Z,63.68
2023-03-10T10:46:37.185Z,61.61
2023-03-10T10:49:20.325Z,63.05
2023-03-10T10:51:59.834Z,63.68
2023-03-10T10:54:30.817Z,63.52
2023-03-10T10:57:02.622Z,63.25
2023-03-10T10:59:32.092Z,62.96
2023-03-10T11:02:01.932Z,62.74
2023-03-10T11:04:41.838Z,63.20
2023-03-10T11:07:13.440Z,63.18
2023-03-10T11:09:41.749Z,63.57
2023-03-10T11:12:20.693Z,63.39
2023-03-10T11:15:04.503Z,63.50
2023-03-10T11:17:38.512Z,63.92
2023-03-10T11:20:18.511Z,63.66
2023-03-10T11:22:50.114Z,62.79
2023-03-10T11:25:27.877Z,61.73
2023-03-10T11:28:16.215Z,62.16
2023-03-10T11:30:50.180Z,62.28
2023-03-10T11:33:28.428Z,61.86
2023-03-10T11:36:01.372Z,62.17
2023-03-10T11:38:38.745Z,62.52
2023-03-10T11:41:13.077Z,62.40
2023-03-10T11:43:58.450Z,62.26
2023-03-10T11:46:32.484Z,62.68
2023-03-10T11:49:08.483Z,62.55
2023-03-10T11:51:40.712Z,62.50
2023-03-10T11:54:18.288Z,62.98
2023-03-10T11:56:47.085Z,63.03
2023-03-10T11:59:20.480Z,63.07
2023-03-10T12:01:53.693Z,63.06
2023-03-10T12:04:27.101Z,62.60
2023-03-10T12:07:01.414Z,62.91
2023-03-10T12:09:38.780Z,63.56
2023-03-10T12:12:09.300Z,63.55
2023-03-10T12:14:39.155Z,63.44
2023-03-10T12:17:07.623Z,63.44
2023-03-10T12:20:12.233Z,63.63
2023-03-10T12:22:42.346Z,63.73
2023-03-10T12:25:44.728Z,63.52
2023-03-10T12:28:19.969Z,63.99
2023-03-10T12:30:51.959Z,63.74
2023-03-10T12:33:42.304Z,63.15
2023-03-10T12:36:15.361Z,63.04
2023-03-10T12:38:46.941Z,63.12
2023-03-10T12:41:36.214Z,63.10
2023-03-10T12:44:26.462Z,62.04
2023-03-10T12:47:00.849Z,62.50
2023-03-10T12:49:35.330Z,62.81
2023-03-10T12:52:21.501Z,62.67
2023-03-10T12:54:56.414Z,62.98
2023-03-10T12:57:31.342Z,62.61
2023-03-10T13:00:06.748Z,62.84
2023-03-10T13:02:45.630Z,63.00
2023-03-10T13:05:23.670Z,63.13
2023-03-10T13:07:55.702Z,63.17
2023-03-10T13:10:26.440Z,63.53
2023-03-10T13:13:01.232Z,63.09
2023-03-10T13:15:31.724Z,63.07
2023-03-10T13:18:19.607Z,63.29
2023-03-10T13:20:48.187Z,63.29
2023-03-10T13:23:23.108Z,63.70
2023-03-10T13:25:56.349Z,63.75
2023-03-10T13:28:24.960Z,63.68
2023-03-10T13:30:53.563Z,63.64
2023-03-10T13:33:27.430Z,63.49
2023-03-10T13:35:55.797Z,62.33
2023-03-10T13:38:24.817Z,62.11
2023-03-10T13:41:02.296Z,61.62
2023-03-10T13:43:37.975Z,61.80
2023-03-10T13:46:10.011Z,62.57
2023-03-10T13:48:42.616Z,62.60
2023-03-10T13:51:20.884Z,62.15
2023-03-10T13:53:52.781Z,61.84
2023-03-10T13:56:24.285Z,61.60
2023-03-10T13:58:56.318Z,60.79
2023-03-10T14:01:27.372Z,61.19
2023-03-10T14:04:00.075Z,60.47
2023-03-10T14:06:30.739Z,60.86
2023-03-10T14:09:14.599Z,61.10
2023-03-10T14:11:47.589Z,61.41
2023-03-10T14:14:28.354Z,61.49
2023-03-10T14:17:00.059Z,61.65
2023-03-10T14:19:52.525Z,61.54
2023-03-10T14:22:25.618Z,60.43
2023-03-10T14:24:53.888Z,61.11
2023-03-10T14:27:22.354Z,61.06
2023-03-10T14:29:52.489Z,60.83
2023-03-10T14:32:21.415Z,60.26
2023-03-10T14:34:51.293Z,59.92
2023-03-10T14:37:20.008Z,60.59
2023-03-10T14:39:48.731Z,60.62
2023-03-10T14:42:21.780Z,60.86
2023-03-10T14:44:50.876Z,60.67
2023-03-10T14:47:19.709Z,61.13
2023-03-10T14:49:48.402Z,61.19
2023-03-10T14:52:19.281Z,61.44
2023-03-10T14:54:47.995Z,61.62
2023-03-10T14:57:20.168Z,61.64
2023-03-10T14:59:48.760Z,61.72
2023-03-10T15:02:22.183Z,61.93
2023-03-10T15:04:50.606Z,62.21
2023-03-10T15:07:20.349Z,61.79
2023-03-10T15:09:50.919Z,61.69
2023-03-10T15:12:23.098Z,60.97
2023-03-10T15:14:55.546Z,60.99
2023-03-10T15:17:24.081Z,61.17
2023-03-10T15:19:52.415Z,61.59
2023-03-10T15:22:22.153Z,61.61
2023-03-10T15:24:50.407Z,61.78
2023-03-10T15:27:18.714Z,61.79
2023-03-10T15:29:47.034Z,62.18
2023-03-10T15:32:15.396Z,62.27
2023-03-10T15:34:44.054Z,62.05
2023-03-10T15:37:12.736Z,62.27
2023-03-10T15:39:42.409Z,62.51
2023-03-10T15:42:10.774Z,62.98
2023-03-10T15:44:40.069Z,62.92
2023-03-10T15:47:08.536Z,62.57
2023-03-10T15:49:39.971Z,62.75
2023-03-10T15:52:08.561Z,63.16
2023-03-10T15:54:36.820Z,63.49
2023-03-10T15:57:09.283Z,63.58
2023-03-10T15:59:38.684Z,63.47
2023-03-10T16:02:07.236Z,63.71
2023-03-10T16:04:35.579Z,63.47
2023-03-10T16:07:04.914Z,63.56
2023-03-10T16:09:33.961Z,63.90
2023-03-10T16:12:02.434Z,64.04
2023-03-10T16:14:32.502Z,64.39
2023-03-10T16:17:00.807Z,64.27
2023-03-10T16:19:29.863Z,64.08
2023-03-10T16:21:58.675Z,64.44
2023-03-10T16:24:27.224Z,63.92
2023-03-10T16:26:55.648Z,64.25
2023-03-10T16:29:23.993Z,63.53
2023-03-10T16:31:54.170Z,63.64
2023-03-10T16:34:22.565Z,63.77
2023-03-10T16:36:51.310Z,63.50
2023-03-10T16:39:19.589Z,63.50
2023-03-10T16:41:47.899Z,64.03
2023-03-10T16:44:16.920Z,63.99
2023-03-10T16:46:45.158Z,63.97
2023-03-10T16:49:17.575Z,63.69
2023-03-10T16:51:47.028Z,63.84
2023-03-10T16:54:17.642Z,63.60
2023-03-10T16:56:48.036Z,63.81
2023-03-10T16:59:18.452Z,63.84
2023-03-10T17:01:47.424Z,64.33
2023-03-10T17:04:17.515Z,64.47
2023-03-10T17:06:46.399Z,64.71
2023-03-10T17:09:16.870Z,64.91
2023-03-10T17:11:47.170Z,64.88
2023-03-10T17:14:17.942Z,64.90
2023-03-10T17:16:47.566Z,64.95
2023-03-10T17:19:19.501Z,64.99
2023-03-10T17:21:49.983Z,65.08
2023-03-10T17:24:20.466Z,65.19
2023-03-10T17:26:48.938Z,64.83
2023-03-10T17:29:17.292Z,65.20
2023-03-10T17:31:49.068Z,64.90
2023-03-10T17:34:20.243Z,64.74
2023-03-10T17:36:51.112Z,64.85
2023-03-10T17:39:21.791Z,64.79
2023-03-10T17:41:50.523Z,65.03
2023-03-10T17:44:19.812Z,64.37
2023-03-10T17:46:48.324Z,64.69
2023-03-10T17:49:18.063Z,64.51
2023-03-10T17:51:48.103Z,64.47
2023-03-10T17:54:20.283Z,64.19
2023-03-10T17:56:49.162Z,64.24
2023-03-10T17:59:18.084Z,64.11
2023-03-10T18:01:48.279Z,64.24
2023-03-10T18:04:17.189Z,64.34
2023-03-10T18:06:45.499Z,64.38
2023-03-10T18:09:15.869Z,64.89
2023-03-10T18:11:44.402Z,64.73
2023-03-10T18:14:12.982Z,64.25
2023-03-10T18:16:42.177Z,64.40
2023-03-10T18:19:11.625Z,64.99
2023-03-10T18:21:40.317Z,65.15
2023-03-10T18:24:08.917Z,66.30
2023-03-10T18:26:43.426Z,65.93
2023-03-10T18:29:11.896Z,65.65
2023-03-10T18:31:40.485Z,65.60
2023-03-10T18:34:10.377Z,65.66
2023-03-10T18:36:38.894Z,64.94
2023-03-10T18:39:07.954Z,65.58
2023-03-10T18:41:36.365Z,64.80
2023-03-10T18:44:06.204Z,64.27
2023-03-10T18:46:34.654Z,65.42
2023-03-10T18:49:02.990Z,64.87
2023-03-10T18:51:32.463Z,62.92
2023-03-10T18:54:00.791Z,63.83
2023-03-10T18:56:29.361Z,64.36
2023-03-10T18:58:57.775Z,64.72
2023-03-10T19:01:27.653Z,64.91
2023-03-10T19:03:56.324Z,65.29
2023-03-10T19:06:24.623Z,66.30
2023-03-10T19:08:53.837Z,66.24
2023-03-10T19:11:24.739Z,65.40
2023-03-10T19:13:53.660Z,64.99
2023-03-10T19:16:22.736Z,65.71
2023-03-10T19:18:52.680Z,65.98
2023-03-10T19:21:22.879Z,66.16
2023-03-10T19:23:51.868Z,65.66
2023-03-10T19:26:20.654Z,65.96
2023-03-10T19:28:49.134Z,65.92
2023-03-10T19:31:17.972Z,65.46
2023-03-10T19:33:46.388Z,66.02
2023-03-10T19:36:18.127Z,66.19
2023-03-10T19:38:46.939Z,66.36
2023-03-10T19:41:17.304Z,66.17
2023-03-10T19:43:46.697Z,65.61
2023-03-10T19:46:16.838Z,64.74
2023-03-10T19:48:45.654Z,66.11
2023-03-10T19:51:22.664Z,66.50
2023-03-10T19:53:52.380Z,66.06
2023-03-10T19:56:21.203Z,66.40
2023-03-10T19:58:50.839Z,66.72
2023-03-10T20:01:22.812Z,66.29
2023-03-10T20:03:52.141Z,65.72
2023-03-10T20:06:22.173Z,65.77
2023-03-10T20:08:51.680Z,66.07
2023-03-10T20:11:20.312Z,66.34
2023-03-10T20:13:48.682Z,66.90
2023-03-10T20:16:18.741Z,66.79
2023-03-10T20:18:47.852Z,66.00
2023-03-10T20:21:16.795Z,66.33
2023-03-10T20:23:48.833Z,65.49
2023-03-10T20:26:17.412Z,65.88
2023-03-10T20:28:46.393Z,64.47
2023-03-10T20:31:18.746Z,64.39
2023-03-10T20:33:47.693Z,65.54
2023-03-10T20:36:16.332Z,65.83
2023-03-10T20:38:47.274Z,65.65
2023-03-10T20:41:17.823Z,64.96
2023-03-10T20:43:46.375Z,64.35
2023-03-10T20:46:18.626Z,63.93
2023-03-10T20:48:50.036Z,63.36
2023-03-10T20:51:19.193Z,64.38
2023-03-10T20:53:49.375Z,63.76
2023-03-10T20:56:17.869Z,62.77
2023-03-10T20:58:46.639Z,63.41
2023-03-10T21:01:17.415Z,62.68
2023-03-10T21:03:45.939Z,63.13
2023-03-10T21:06:14.293Z,63.25
2023-03-10T21:08:42.903Z,62.77
2023-03-10T21:11:12.656Z,62.83
2023-03-10T21:13:43.185Z,63.34
2023-03-10T21:16:12.252Z,62.39
2023-03-10T21:18:41.211Z,62.18
2023-03-10T21:21:10.220Z,60.89
2023-03-10T21:23:40.731Z,61.38
2023-03-10T21:26:15.037Z,62.51
2023-03-10T21:28:43.651Z,62.60
2023-03-10T21:31:12.627Z,62.72
2023-03-10T21:33:42.023Z,60.93
2023-03-10T21:36:12.927Z,61.55
2023-03-10T21:38:41.235Z,61.57
2023-03-10T21:41:09.744Z,61.91
2023-03-10T21:43:39.484Z,62.50
2023-03-10T21:46:07.752Z,62.24
2023-03-10T21:48:36.060Z,62.21
2023-03-10T21:51:04.585Z,61.75
2023-03-10T21:53:32.956Z,60.37
2023-03-10T21:56:01.499Z,59.31
2023-03-10T21:58:29.866Z,60.12
2023-03-10T22:00:59.630Z,60.88
2023-03-10T22:03:28.038Z,60.88
2023-03-10T22:05:56.339Z,59.51
2023-03-10T22:08:24.757Z,60.88
2023-03-10T22:10:53.046Z,60.79
2023-03-10T22:13:21.368Z,62.27
2023-03-10T22:15:49.782Z,63.53
2023-03-10T22:18:19.529Z,64.11
2023-03-10T22:20:47.847Z,63.81
2023-03-10T22:23:16.147Z,65.43
2023-03-10T22:25:44.562Z,66.52
2023-03-10T22:28:12.976Z,66.60
2023-03-10T22:30:41.695Z,66.38
2023-03-10T22:33:10.675Z,65.72
2023-03-10T22:35:40.457Z,63.30
2023-03-10T22:38:09.058Z,62.94
2023-03-10T22:40:37.410Z,63.14
2023-03-10T22:43:05.659Z,63.87
2023-03-10T22:45:35.498Z,64.13
2023-03-10T22:48:06.364Z,64.22
2023-03-10T22:50:36.965Z,66.03
2023-03-10T22:53:08.886Z,66.41
2023-03-10T22:55:37.203Z,66.69
2023-03-10T22:58:07.251Z,67.37
2023-03-10T23:00:36.197Z,67.28
2023-03-10T23:03:05.568Z,67.38
2023-03-10T23:05:34.330Z,66.72
2023-03-10T23:08:02.709Z,67.00
2023-03-10T23:10:35.196Z,66.37
2023-03-10T23:13:05.523Z,65.85
2023-03-10T23:15:35.893Z,65.75
2023-03-10T23:18:04.235Z,67.12
2023-03-10T23:20:35.554Z,67.33
2023-03-10T23:23:06.287Z,67.21
2023-03-10T23:25:38.231Z,66.93
2023-03-10T23:28:08.494Z,67.66
2023-03-10T23:30:38.854Z,67.71
2023-03-10T23:33:08.571Z,67.77
2023-03-10T23:35:37.505Z,67.82
2023-03-10T23:38:06.864Z,67.30
2023-03-10T23:40:38.039Z,67.10
2023-03-10T23:43:08.163Z,66.81
2023-03-10T23:45:38.078Z,67.25
2023-03-10T23:48:10.206Z,66.58
2023-03-10T23:50:40.816Z,67.21
2023-03-10T23:53:10.627Z,66.29
2023-03-10T23:55:42.146Z,65.42
2023-03-10T23:58:11.425Z,64.88
